createdAt,value
2018-02-27T00:02:21.405Z,27.50
2018-02-27T00:04:50.190Z,22.33
2018-02-27T00:07:18.818Z,32.27
2018-02-27T00:09:47.091Z,22.60
2018-02-27T00:12:16.648Z,23.83
2018-02-27T00:14:45.223Z,26.60
2018-02-27T00:17:14.051Z,25.80
2018-02-27T00:19:42.715Z,22.87
2018-02-27T00:22:10.538Z,31.00
2018-02-27T00:24:38.742Z,21.30
2018-02-27T00:27:08.579Z,24.53
2018-02-27T00:29:36.377Z,24.37
2018-02-27T00:32:04.182Z,25.80
2018-02-27T00:34:32.943Z,25.83
2018-02-27T00:37:03.870Z,26.10
2018-02-27T00:39:31.700Z,24.00
2018-02-27T00:41:59.527Z,21.03
2018-02-27T00:44:28.100Z,26.73
2018-02-27T00:46:57.630Z,25.67
2018-02-27T00:49:26.206Z,24.17
2018-02-27T00:51:55.590Z,24.57
2018-02-27T00:54:23.382Z,26.37
2018-02-27T00:56:51.943Z,28.50
2018-02-27T00:59:19.754Z,27.40
2018-02-27T01:01:47.563Z,24.47
2018-02-27T01:04:15.369Z,28.50
2018-02-27T01:06:43.168Z,25.90
2018-02-27T01:09:11.447Z,25.60
2018-02-27T01:11:39.999Z,27.40
2018-02-27T01:14:07.814Z,25.37
2018-02-27T01:16:35.614Z,25.63
2018-02-27T01:19:04.993Z,27.87
2018-02-27T01:21:32.882Z,27.70
2018-02-27T01:24:01.475Z,30.17
2018-02-27T01:26:29.282Z,25.17
2018-02-27T01:28:58.644Z,28.63
2018-02-27T01:31:26.494Z,36.33
2018-02-27T01:33:56.308Z,25.53
2018-02-27T01:36:24.886Z,34.27
2018-02-27T01:38:53.447Z,28.43
2018-02-27T01:41:21.357Z,34.63
2018-02-27T01:43:50.706Z,24.87
2018-02-27T01:46:18.510Z,26.13
2018-02-27T01:48:47.130Z,32.83
2018-02-27T01:51:15.682Z,35.30
2018-02-27T01:53:44.370Z,37.90
2018-02-27T01:56:12.951Z,34.37
2018-02-27T01:58:40.790Z,41.53
2018-02-27T02:01:08.869Z,42.40
2018-02-27T02:03:38.218Z,44.03
2018-02-27T02:06:06.023Z,45.60
2018-02-27T02:08:33.821Z,47.70
2018-02-27T02:11:03.245Z,47.23
2018-02-27T02:13:31.056Z,49.83
2018-02-27T02:15:59.655Z,45.50
2018-02-27T02:18:28.230Z,46.10
2018-02-27T02:20:57.463Z,49.57
2018-02-27T02:23:25.861Z,44.40
2018-02-27T02:25:53.671Z,49.17
2018-02-27T02:28:23.232Z,48.57
2018-02-27T02:30:52.512Z,41.23
2018-02-27T02:33:21.236Z,40.30
2018-02-27T02:35:49.071Z,42.07
2018-02-27T02:38:16.870Z,45.30
2018-02-27T02:40:47.038Z,45.67
2018-02-27T02:43:16.332Z,52.63
2018-02-27T02:45:44.490Z,41.90
2018-02-27T02:48:13.155Z,40.10
2018-02-27T02:50:40.960Z,43.00
2018-02-27T02:53:09.950Z,36.80
2018-02-27T02:55:37.747Z,40.60
2018-02-27T02:58:05.574Z,48.90
2018-02-27T03:00:34.027Z,39.30
2018-02-27T03:03:01.822Z,40.40
2018-02-27T03:05:29.626Z,43.23
2018-02-27T03:07:57.437Z,34.10
2018-02-27T03:10:26.011Z,36.57
2018-02-27T03:12:54.731Z,32.67
2018-02-27T03:15:23.310Z,34.40
2018-02-27T03:17:51.115Z,29.90
2018-02-27T03:20:20.721Z,27.23
2018-02-27T03:22:49.479Z,29.80
2018-02-27T03:25:17.284Z,28.70
2018-02-27T03:27:46.592Z,26.53
2018-02-27T03:30:15.711Z,29.73
2018-02-27T03:32:43.559Z,25.70
2018-02-27T03:35:11.398Z,24.77
2018-02-27T03:37:39.198Z,26.13
2018-02-27T03:40:08.786Z,24.20
2018-02-27T03:42:37.250Z,24.30
2018-02-27T03:45:05.137Z,25.20
2018-02-27T03:47:32.922Z,24.53
2018-02-27T03:50:01.536Z,25.13
2018-02-27T03:52:29.352Z,27.37
2018-02-27T03:54:57.138Z,21.93
2018-02-27T03:57:25.701Z,23.47
2018-02-27T03:59:53.545Z,20.10
2018-02-27T04:02:21.561Z,19.57
2018-02-27T04:04:49.372Z,26.13
2018-02-27T04:07:17.294Z,24.43
2018-02-27T04:09:45.114Z,18.70
2018-02-27T04:12:12.992Z,20.97
2018-02-27T04:14:40.850Z,20.77
2018-02-27T04:17:10.426Z,22.53
2018-02-27T04:19:39.559Z,18.03
2018-02-27T04:22:07.353Z,21.33
2018-02-27T04:24:36.551Z,21.90
2018-02-27T04:27:05.594Z,26.10
2018-02-27T04:29:33.380Z,27.30
2018-02-27T04:32:02.818Z,26.43
2018-02-27T04:34:31.390Z,26.27
2018-02-27T04:37:00.882Z,25.00
2018-02-27T04:39:28.675Z,22.67
2018-02-27T04:41:56.497Z,20.77
2018-02-27T04:44:24.294Z,21.37
2018-02-27T04:46:53.449Z,19.87
2018-02-27T04:49:21.261Z,19.43
2018-02-27T04:51:49.076Z,23.90
2018-02-27T04:54:18.247Z,22.80
2018-02-27T04:56:46.043Z,28.63
2018-02-27T04:59:15.410Z,22.20
2018-02-27T05:01:43.234Z,23.47
2018-02-27T05:04:11.043Z,33.20
2018-02-27T05:06:39.496Z,26.90
2018-02-27T05:09:08.062Z,24.77
2018-02-27T05:11:35.905Z,21.40
2018-02-27T05:14:04.458Z,17.63
2018-02-27T05:16:32.269Z,22.20
2018-02-27T05:19:01.113Z,25.80
2018-02-27T05:21:29.582Z,35.33
2018-02-27T05:23:57.390Z,28.20
2018-02-27T05:26:25.191Z,34.27
2018-02-27T05:28:53.763Z,50.30
2018-02-27T05:31:22.336Z,34.70
2018-02-27T05:33:51.302Z,35.10
2018-02-27T05:36:19.094Z,43.47
2018-02-27T05:38:47.658Z,29.70
2018-02-27T05:41:15.460Z,36.13
2018-02-27T05:43:44.040Z,35.90
2018-02-27T05:46:13.553Z,34.73
2018-02-27T05:48:42.864Z,44.07
2018-02-27T05:51:10.665Z,32.83
2018-02-27T05:53:40.174Z,24.43
2018-02-27T05:56:09.842Z,27.63
2018-02-27T05:58:38.465Z,37.00
2018-02-27T06:01:07.882Z,29.80
2018-02-27T06:03:36.659Z,23.40
2018-02-27T06:06:04.460Z,26.30
2018-02-27T06:08:32.272Z,26.00
2018-02-27T06:11:00.085Z,38.27
2018-02-27T06:13:28.754Z,29.00
2018-02-27T06:15:57.533Z,26.77
2018-02-27T06:18:25.942Z,30.13
2018-02-27T06:20:54.896Z,22.47
2018-02-27T06:23:22.705Z,22.13
2018-02-27T06:25:51.300Z,26.00
2018-02-27T06:28:19.533Z,22.47
2018-02-27T06:30:47.341Z,26.80
2018-02-27T06:33:15.186Z,44.13
2018-02-27T06:35:43.552Z,33.03
2018-02-27T06:38:12.116Z,38.67
2018-02-27T06:40:40.680Z,45.30
2018-02-27T06:43:09.404Z,51.70
2018-02-27T06:45:39.174Z,43.60
2018-02-27T06:48:07.019Z,46.00
2018-02-27T06:50:35.094Z,51.60
2018-02-27T06:53:02.886Z,58.30
2018-02-27T06:55:31.453Z,56.83
2018-02-27T06:57:59.814Z,59.80
2018-02-27T07:00:27.611Z,48.13
2018-02-27T07:02:56.216Z,56.10
2018-02-27T07:05:24.676Z,58.50
2018-02-27T07:07:53.272Z,56.57
2018-02-27T07:10:21.838Z,62.87
2018-02-27T07:12:49.646Z,60.47
2018-02-27T07:15:18.195Z,52.20
2018-02-27T07:17:46.735Z,59.10
2018-02-27T07:20:14.587Z,59.22
2018-02-27T07:22:43.321Z,55.03
2018-02-27T07:25:11.124Z,54.80
2018-02-27T07:27:39.686Z,58.63
2018-02-27T07:30:07.534Z,48.53
2018-02-27T07:32:35.334Z,51.93
2018-02-27T07:35:04.666Z,51.23
2018-02-27T07:37:32.463Z,48.47
2018-02-27T07:40:00.250Z,41.77
2018-02-27T07:42:28.034Z,50.50
2018-02-27T07:44:57.646Z,50.13
2018-02-27T07:47:26.215Z,52.13
2018-02-27T07:49:55.599Z,42.97
2018-02-27T07:52:23.486Z,45.77
2018-02-27T07:54:52.044Z,41.13
2018-02-27T07:57:19.857Z,35.77
2018-02-27T07:59:47.646Z,42.87
2018-02-27T08:02:15.445Z,37.30
2018-02-27T08:04:43.235Z,45.00
2018-02-27T08:07:12.063Z,41.30
2018-02-27T08:09:39.862Z,33.33
2018-02-27T08:12:07.657Z,35.17
2018-02-27T08:14:36.288Z,42.07
2018-02-27T08:17:05.091Z,37.70
2018-02-27T08:19:34.856Z,34.63
2018-02-27T08:22:04.312Z,45.27
2018-02-27T08:24:33.020Z,33.73
2018-02-27T08:27:02.078Z,29.67
2018-02-27T08:43:34.535Z,38.60
2018-02-27T08:46:02.416Z,37.73
2018-02-27T08:52:01.359Z,29.73
2018-02-27T09:01:23.864Z,30.00
2018-02-27T09:13:34.452Z,28.83
2018-02-27T09:16:04.389Z,30.43
2018-02-27T09:18:32.806Z,26.07
2018-02-27T09:21:01.154Z,32.07
2018-02-27T09:23:30.542Z,28.13
2018-02-27T09:25:59.105Z,27.73
2018-02-27T09:28:26.894Z,37.17
2018-02-27T09:30:55.715Z,31.50
2018-02-27T09:33:23.516Z,35.87
2018-02-27T09:35:51.325Z,25.97
2018-02-27T09:38:19.890Z,38.13
2018-02-27T09:40:50.236Z,31.23
2018-02-27T09:43:19.576Z,44.43
2018-02-27T09:45:47.479Z,42.83
2018-02-27T09:48:16.263Z,30.77
2018-02-27T09:50:44.296Z,25.57
2018-02-27T09:53:13.104Z,29.90
2018-02-27T09:55:41.804Z,26.27
2018-02-27T09:58:09.604Z,26.20
2018-02-27T10:00:37.428Z,27.80
2018-02-27T10:03:05.270Z,24.43
2018-02-27T10:05:34.039Z,28.40
2018-02-27T10:08:01.870Z,33.47
2018-02-27T10:10:30.446Z,29.03
2018-02-27T10:12:58.856Z,32.80
2018-02-27T10:15:26.638Z,26.03
2018-02-27T10:17:57.173Z,33.10
2018-02-27T10:20:24.957Z,27.23
2018-02-27T10:22:52.743Z,28.80
2018-02-27T10:25:20.557Z,31.57
2018-02-27T10:27:48.379Z,22.87
2018-02-27T10:30:16.148Z,27.90
2018-02-27T10:32:45.067Z,21.30
2018-02-27T10:35:12.841Z,24.33
2018-02-27T10:37:40.622Z,27.90
2018-02-27T10:40:09.174Z,32.90
2018-02-27T10:42:36.965Z,31.60
2018-02-27T10:45:04.754Z,25.27
2018-02-27T10:47:32.538Z,28.33
2018-02-27T10:50:01.161Z,20.63
2018-02-27T10:52:28.933Z,21.90
2018-02-27T10:54:56.773Z,18.37
2018-02-27T10:57:25.288Z,20.60
2018-02-27T10:59:53.082Z,19.53
2018-02-27T11:02:21.654Z,21.63
2018-02-27T11:04:49.435Z,18.80
2018-02-27T11:07:17.989Z,14.73
2018-02-27T11:09:45.803Z,16.17
2018-02-27T11:12:14.369Z,29.23
2018-02-27T11:14:42.924Z,13.30
2018-02-27T11:17:10.719Z,20.67
2018-02-27T11:19:39.305Z,26.37
2018-02-27T11:22:07.849Z,25.08
2018-02-27T11:24:36.409Z,19.93
2018-02-27T11:27:04.193Z,20.33
2018-02-27T11:29:31.985Z,17.00
2018-02-27T11:31:59.771Z,16.13
2018-02-27T11:34:28.328Z,16.90
2018-02-27T11:36:56.130Z,21.10
2018-02-27T11:39:23.933Z,17.20
2018-02-27T11:41:51.703Z,14.57
2018-02-27T11:44:19.520Z,24.37
2018-02-27T11:46:47.304Z,27.27
2018-02-27T11:49:15.093Z,13.40
2018-02-27T11:51:42.870Z,13.93
2018-02-27T11:54:10.665Z,15.47
2018-02-27T11:56:39.206Z,18.67
2018-02-27T11:59:06.989Z,14.47
2018-02-27T12:01:35.857Z,18.53
2018-02-27T12:04:03.653Z,21.60
2018-02-27T12:06:32.205Z,22.97
2018-02-27T12:08:59.999Z,20.03
2018-02-27T12:11:28.546Z,18.13
2018-02-27T12:13:57.916Z,14.43
2018-02-27T12:16:25.773Z,20.00
2018-02-27T12:18:53.558Z,27.53
2018-02-27T12:21:21.496Z,14.10
2018-02-27T12:23:50.122Z,7.33
2018-02-27T12:26:17.894Z,13.07
2018-02-27T12:28:45.662Z,17.20
2018-02-27T12:31:13.426Z,6.57
2018-02-27T12:33:41.215Z,21.50
2018-02-27T12:36:08.978Z,9.97
2018-02-27T12:38:36.770Z,9.60
2018-02-27T12:41:04.562Z,10.13
2018-02-27T12:43:32.349Z,6.60
2018-02-27T12:46:00.137Z,12.73
2018-02-27T12:48:27.914Z,18.05
2018-02-27T12:50:56.478Z,10.23
2018-02-27T12:53:24.291Z,7.93
2018-02-27T12:55:52.072Z,13.03
2018-02-27T12:58:21.142Z,21.27
2018-02-27T13:00:49.241Z,10.93
2018-02-27T13:03:18.509Z,8.60
2018-02-27T13:05:46.429Z,14.50
2018-02-27T13:08:15.519Z,17.43
2018-02-27T13:10:43.301Z,7.73
2018-02-27T13:13:11.182Z,9.07
2018-02-27T13:15:39.729Z,15.33
2018-02-27T13:18:07.542Z,7.47
2018-02-27T13:20:36.082Z,11.30
2018-02-27T13:23:03.853Z,5.43
2018-02-27T13:25:31.649Z,6.03
2018-02-27T13:27:59.457Z,5.83
2018-02-27T13:30:27.234Z,10.07
2018-02-27T13:32:55.045Z,12.43
2018-02-27T13:35:23.576Z,9.10
2018-02-27T13:37:51.381Z,7.57
2018-02-27T13:40:19.266Z,11.57
2018-02-27T13:42:47.042Z,6.00
2018-02-27T13:45:14.816Z,7.80
2018-02-27T13:47:42.598Z,16.50
2018-02-27T13:50:10.370Z,5.83
2018-02-27T13:52:38.169Z,8.07
2018-02-27T13:55:06.721Z,5.97
2018-02-27T13:57:34.494Z,9.90
2018-02-27T14:00:02.286Z,8.20
2018-02-27T14:02:30.826Z,13.10
2018-02-27T14:04:58.598Z,13.30
2018-02-27T14:07:26.361Z,10.87
2018-02-27T14:09:54.137Z,9.60
2018-02-27T14:12:21.921Z,13.47
2018-02-27T14:14:50.462Z,13.53
2018-02-27T14:17:18.224Z,4.83
2018-02-27T14:19:46.010Z,7.90
2018-02-27T14:22:13.798Z,13.60
2018-02-27T14:24:42.346Z,11.50
2018-02-27T14:27:10.125Z,15.97
2018-02-27T14:29:37.908Z,15.40
2018-02-27T14:32:06.525Z,9.03
2018-02-27T14:34:34.328Z,11.93
2018-02-27T14:37:02.143Z,12.93
2018-02-27T14:39:29.917Z,8.93
2018-02-27T14:41:57.698Z,6.80
2018-02-27T14:44:25.489Z,12.60
2018-02-27T14:46:53.523Z,36.23
2018-02-27T14:49:21.334Z,15.13
2018-02-27T14:51:49.111Z,15.30
2018-02-27T14:54:17.673Z,15.97
2018-02-27T14:56:45.465Z,7.90
2018-02-27T14:59:14.023Z,9.93
2018-02-27T15:01:42.602Z,23.93
2018-02-27T15:04:10.399Z,9.13
2018-02-27T15:06:38.200Z,20.43
2018-02-27T15:09:05.972Z,16.00
2018-02-27T15:11:33.777Z,8.17
2018-02-27T15:14:02.335Z,19.67
2018-02-27T15:16:30.124Z,19.50
2018-02-27T15:18:58.705Z,17.23
2018-02-27T15:21:27.268Z,14.50
2018-02-27T15:23:55.074Z,18.77
2018-02-27T15:26:22.862Z,22.60
2018-02-27T15:28:50.647Z,12.90
2018-02-27T15:31:18.445Z,14.30
2018-02-27T15:33:47.007Z,15.47
2018-02-27T15:36:14.809Z,14.80
2018-02-27T15:38:42.685Z,17.63
2018-02-27T15:41:10.468Z,14.37
2018-02-27T15:43:38.293Z,19.87
2018-02-27T15:46:06.889Z,16.80
2018-02-27T15:48:34.682Z,16.80
2018-02-27T15:51:02.454Z,22.10
2018-02-27T15:53:30.259Z,20.10
2018-02-27T15:55:58.852Z,22.23
2018-02-27T15:58:27.439Z,14.87
2018-02-27T16:03:30.733Z,13.73
2018-02-27T16:05:58.542Z,29.27
2018-02-27T16:08:26.320Z,21.70
2018-02-27T16:10:54.888Z,16.10
2018-02-27T16:13:22.679Z,17.37
2018-02-27T16:15:50.565Z,35.10
2018-02-27T16:18:18.387Z,17.40
2018-02-27T16:20:46.985Z,24.07
2018-02-27T16:23:14.761Z,25.30
2018-02-27T16:25:43.224Z,22.17
2018-02-27T16:28:11.033Z,12.30
2018-02-27T16:30:38.823Z,10.03
2018-02-27T16:33:06.602Z,21.57
2018-02-27T16:35:34.412Z,14.20
2018-02-27T16:38:02.194Z,20.17
2018-02-27T16:40:29.973Z,16.43
2018-02-27T16:42:58.517Z,13.20
2018-02-27T16:45:26.309Z,17.43
2018-02-27T16:47:56.600Z,14.37
2018-02-27T16:50:24.395Z,13.27
2018-02-27T16:52:52.956Z,18.77
2018-02-27T16:55:20.736Z,21.67
2018-02-27T16:57:48.528Z,10.73
2018-02-27T17:00:16.307Z,22.00
2018-02-27T17:02:44.089Z,16.80
2018-02-27T17:05:11.870Z,14.53
2018-02-27T17:07:39.650Z,18.43
2018-02-27T17:10:07.460Z,17.13
2018-02-27T17:12:35.268Z,27.57
2018-02-27T17:15:03.073Z,15.93
2018-02-27T17:17:31.688Z,23.50
2018-02-27T17:19:59.474Z,17.23
2018-02-27T17:22:27.262Z,15.47
2018-02-27T17:24:55.110Z,20.00
2018-02-27T17:27:22.903Z,21.40
2018-02-27T17:29:52.325Z,20.77
2018-02-27T17:32:20.110Z,28.80
2018-02-27T17:34:47.886Z,19.30
2018-02-27T17:37:15.682Z,14.10
2018-02-27T17:39:43.470Z,26.53
2018-02-27T17:42:13.710Z,15.57
2018-02-27T17:44:41.525Z,14.63
2018-02-27T17:47:09.725Z,32.70
2018-02-27T17:49:37.564Z,18.60
2018-02-27T17:52:05.472Z,25.93
2018-02-27T17:54:33.558Z,25.27
2018-02-27T17:57:03.665Z,22.73
2018-02-27T17:59:33.818Z,13.83
2018-02-27T18:02:03.540Z,18.10
2018-02-27T18:04:31.329Z,18.83
2018-02-27T18:06:59.123Z,14.03
2018-02-27T18:09:28.805Z,15.03
2018-02-27T18:11:57.935Z,19.03
2018-02-27T18:14:25.733Z,22.40
2018-02-27T18:16:53.540Z,15.97
2018-02-27T18:19:24.432Z,17.43
2018-02-27T18:21:52.602Z,24.07
2018-02-27T18:24:20.417Z,18.23
2018-02-27T18:26:50.707Z,14.87
2018-02-27T18:29:19.290Z,14.70
2018-02-27T18:31:47.071Z,16.57
2018-02-27T18:34:16.432Z,20.70
2018-02-27T18:36:44.223Z,28.43
2018-02-27T18:39:12.004Z,15.27
2018-02-27T18:41:39.791Z,19.07
2018-02-27T18:44:08.417Z,20.37
2018-02-27T18:46:36.165Z,15.80
2018-02-27T18:49:03.967Z,22.65
2018-02-27T18:51:31.770Z,15.13
2018-02-27T18:53:59.591Z,19.67
2018-02-27T18:56:27.402Z,16.23
2018-02-27T18:58:55.186Z,21.37
2018-02-27T19:01:23.756Z,21.57
2018-02-27T19:03:51.545Z,15.13
2018-02-27T19:06:19.420Z,15.00
2018-02-27T19:08:47.197Z,18.03
2018-02-27T19:11:14.996Z,19.63
2018-02-27T19:13:43.533Z,22.70
2018-02-27T19:16:11.309Z,27.93
2018-02-27T19:18:39.087Z,18.50
2018-02-27T19:21:06.897Z,26.57
2018-02-27T19:23:34.709Z,31.13
2018-02-27T19:26:02.500Z,20.00
2018-02-27T19:28:31.058Z,26.37
2018-02-27T19:30:58.842Z,20.40
2018-02-27T19:33:26.608Z,28.20
2018-02-27T19:35:55.254Z,31.60
2018-02-27T19:38:23.043Z,26.53
2018-02-27T19:40:50.842Z,22.70
2018-02-27T19:43:18.625Z,33.17
2018-02-27T19:45:46.402Z,20.53
2018-02-27T19:48:14.190Z,33.37
2018-02-27T19:50:41.978Z,28.20
2018-02-27T19:53:10.526Z,22.33
2018-02-27T19:55:38.289Z,28.80
2018-02-27T19:58:06.101Z,19.30
2018-02-27T20:00:34.634Z,24.30
2018-02-27T20:03:04.354Z,24.23
2018-02-27T20:05:32.121Z,26.93
2018-02-27T20:07:59.960Z,25.33
2018-02-27T20:10:27.778Z,26.80
2018-02-27T20:12:56.337Z,17.17
2018-02-27T20:15:24.125Z,24.57
2018-02-27T20:17:58.330Z,29.00
2018-02-27T20:20:26.110Z,21.77
2018-02-27T20:23:00.175Z,17.83
2018-02-27T20:25:27.958Z,21.40
2018-02-27T20:27:55.739Z,25.93
2018-02-27T20:30:24.321Z,14.33
2018-02-27T20:32:52.098Z,16.43
2018-02-27T20:35:20.632Z,9.00
2018-02-27T20:37:48.442Z,13.13
2018-02-27T20:40:16.993Z,13.17
2018-02-27T20:42:44.777Z,13.23
2018-02-27T20:45:12.546Z,15.93
2018-02-27T20:47:41.111Z,6.03
2018-02-27T20:50:08.895Z,10.57
2018-02-27T20:52:37.436Z,16.07
2018-02-27T20:55:05.214Z,19.53
2018-02-27T20:57:32.982Z,14.40
2018-02-27T21:00:00.778Z,13.90
2018-02-27T21:02:28.698Z,17.13
2018-02-27T21:04:56.488Z,17.90
2018-02-27T21:07:24.268Z,13.67
2018-02-27T21:09:52.809Z,15.80
2018-02-27T21:12:20.610Z,13.57
2018-02-27T21:14:49.166Z,14.07
2018-02-27T21:17:17.119Z,15.87
2018-02-27T21:19:44.909Z,25.27
2018-02-27T21:22:12.691Z,91.03
2018-02-27T21:24:41.231Z,83.43
2018-02-27T21:27:09.025Z,25.30
2018-02-27T21:29:36.804Z,22.47
2018-02-27T21:32:05.349Z,15.33
2018-02-27T21:34:33.122Z,16.43
2018-02-27T21:37:00.882Z,20.77
2018-02-27T21:39:28.673Z,10.10
2018-02-27T21:41:57.209Z,21.47
2018-02-27T21:44:25.022Z,20.25
2018-02-27T21:47:01.626Z,16.43
2018-02-27T21:49:30.315Z,22.63
2018-02-27T21:51:58.096Z,22.10
2018-02-27T21:54:25.867Z,20.10
2018-02-27T21:56:53.634Z,18.33
2018-02-27T21:59:21.466Z,11.87
2018-02-27T22:01:49.329Z,21.00
2018-02-27T22:04:17.092Z,13.83
2018-02-27T22:06:44.868Z,15.60
2018-02-27T22:09:12.641Z,11.07
2018-02-27T22:11:40.410Z,23.67
2018-02-27T22:14:08.189Z,14.80
2018-02-27T22:16:35.957Z,15.10
2018-02-27T22:19:03.798Z,10.50
2018-02-27T22:21:31.572Z,17.97
2018-02-27T22:23:59.354Z,16.60
2018-02-27T22:26:27.121Z,14.83
2018-02-27T22:28:54.895Z,15.53
2018-02-27T22:31:22.666Z,10.00
2018-02-27T22:33:50.466Z,11.73
2018-02-27T22:36:18.246Z,14.70
2018-02-27T22:38:46.050Z,7.07
2018-02-27T22:41:13.842Z,7.10
2018-02-27T22:43:42.389Z,13.03
2018-02-27T22:46:10.166Z,14.20
2018-02-27T22:48:37.940Z,12.17
2018-02-27T22:51:06.480Z,11.50
2018-02-27T22:53:34.266Z,14.00
2018-02-27T22:56:09.350Z,12.83
2018-02-27T22:58:37.149Z,13.40
2018-02-27T23:01:12.712Z,15.40
2018-02-27T23:03:48.364Z,15.97
2018-02-27T23:06:51.724Z,9.05
2018-02-27T23:09:19.624Z,15.93
2018-02-27T23:11:47.547Z,10.40
2018-02-27T23:14:15.365Z,16.00
2018-02-27T23:16:43.145Z,16.30
2018-02-27T23:19:10.926Z,14.10
2018-02-27T23:21:38.713Z,7.50
2018-02-27T23:24:28.379Z,19.10
2018-02-27T23:55:36.647Z,17.67
